< < Back
Terminal Aerodrome Forecast


Current Version              Previous Versions:   1  2  3  4  5  6  7  8  9  

Terminal Aerodrome Forecast

116
FTUS42 KMLB 262336
TAFMCO
TAF
KMCO 262336Z 2700/2724 00000KT P6SM FEW040 SCT120 BKN250
     FM270100 VRB02KT P6SM SCT250
     FM271500 VRB04KT P6SM SCT030 SCT060 BKN250=

Latest METAR

786
SAUS70 KWBC 271300 RRK
MTRMCO
METAR KMCO 271253Z 00000KT 10SM FEW030 FEW280 27/22 A3009 RMK AO2 SLP187
TCU DSNT W T02720222


USA.gov is the U.S. government's official web portal to all federal, state and local government web resources and services.